sensor_id;sensor_type;location;lat;lon;timestamp;P1;durP1;ratioP1;P2;durP2;ratioP2
23474;SDS011;11910;52.086;21.066;2023-03-01T00:01:47;126.18;;;66.38;;
23474;SDS011;11910;52.086;21.066;2023-03-01T00:04:13;137.70;;;69.40;;
23474;SDS011;11910;52.086;21.066;2023-03-01T00:06:39;129.05;;;67.47;;
23474;SDS011;11910;52.086;21.066;2023-03-01T00:09:05;138.82;;;72.75;;
23474;SDS011;11910;52.086;21.066;2023-03-01T00:11:31;143.15;;;74.78;;
23474;SDS011;11910;52.086;21.066;2023-03-01T00:13:58;144.00;;;74.70;;
23474;SDS011;11910;52.086;21.066;2023-03-01T00:16:27;145.27;;;76.57;;
23474;SDS011;11910;52.086;21.066;2023-03-01T00:18:55;123.35;;;66.28;;
23474;SDS011;11910;52.086;21.066;2023-03-01T00:21:22;140.80;;;73.15;;
23474;SDS011;11910;52.086;21.066;2023-03-01T00:23:48;139.27;;;74.68;;
23474;SDS011;11910;52.086;21.066;2023-03-01T00:26:15;139.30;;;70.70;;
23474;SDS011;11910;52.086;21.066;2023-03-01T00:28:41;117.47;;;63.80;;
23474;SDS011;11910;52.086;21.066;2023-03-01T00:31:08;122.63;;;63.13;;
23474;SDS011;11910;52.086;21.066;2023-03-01T00:33:36;117.13;;;62.80;;
23474;SDS011;11910;52.086;21.066;2023-03-01T00:36:01;114.82;;;62.15;;
23474;SDS011;11910;52.086;21.066;2023-03-01T00:38:28;115.82;;;62.80;;
23474;SDS011;11910;52.086;21.066;2023-03-01T00:40:53;116.95;;;59.83;;
23474;SDS011;11910;52.086;21.066;2023-03-01T00:43:19;115.90;;;62.17;;
23474;SDS011;11910;52.086;21.066;2023-03-01T00:45:44;117.43;;;62.42;;
23474;SDS011;11910;52.086;21.066;2023-03-01T00:48:10;115.13;;;59.65;;
23474;SDS011;11910;52.086;21.066;2023-03-01T00:50:36;112.43;;;59.60;;
23474;SDS011;11910;52.086;21.066;2023-03-01T00:53:01;104.30;;;55.08;;
23474;SDS011;11910;52.086;21.066;2023-03-01T00:55:27;105.72;;;54.88;;
23474;SDS011;11910;52.086;21.066;2023-03-01T00:57:53;104.78;;;54.22;;
23474;SDS011;11910;52.086;21.066;2023-03-01T01:00:19;99.90;;;54.63;;
23474;SDS011;11910;52.086;21.066;2023-03-01T01:02:45;104.72;;;55.28;;
23474;SDS011;11910;52.086;21.066;2023-03-01T01:05:11;106.05;;;56.10;;
23474;SDS011;11910;52.086;21.066;2023-03-01T01:07:36;100.78;;;55.17;;
23474;SDS011;11910;52.086;21.066;2023-03-01T01:10:03;108.38;;;56.70;;
23474;SDS011;11910;52.086;21.066;2023-03-01T01:12:29;102.78;;;55.08;;
23474;SDS011;11910;52.086;21.066;2023-03-01T01:14:54;101.13;;;54.30;;
23474;SDS011;11910;52.086;21.066;2023-03-01T01:17:20;98.30;;;52.75;;
23474;SDS011;11910;52.086;21.066;2023-03-01T01:19:45;93.13;;;49.47;;
23474;SDS011;11910;52.086;21.066;2023-03-01T01:22:11;95.53;;;51.35;;
23474;SDS011;11910;52.086;21.066;2023-03-01T01:24:36;92.00;;;52.03;;
23474;SDS011;11910;52.086;21.066;2023-03-01T01:27:02;99.20;;;54.08;;
23474;SDS011;11910;52.086;21.066;2023-03-01T01:29:28;91.65;;;49.63;;
23474;SDS011;11910;52.086;21.066;2023-03-01T01:31:53;99.35;;;52.60;;
23474;SDS011;11910;52.086;21.066;2023-03-01T01:34:20;94.10;;;50.63;;
23474;SDS011;11910;52.086;21.066;2023-03-01T01:36:50;88.05;;;49.80;;
23474;SDS011;11910;52.086;21.066;2023-03-01T01:39:18;90.35;;;48.22;;
23474;SDS011;11910;52.086;21.066;2023-03-01T01:41:45;85.65;;;47.83;;
23474;SDS011;11910;52.086;21.066;2023-03-01T01:46:37;89.15;;;47.80;;
23474;SDS011;11910;52.086;21.066;2023-03-01T01:52:26;82.18;;;44.33;;
23474;SDS011;11910;52.086;21.066;2023-03-01T01:54:57;78.55;;;43.35;;
23474;SDS011;11910;52.086;21.066;2023-03-01T01:57:55;83.90;;;44.05;;
23474;SDS011;11910;52.086;21.066;2023-03-01T02:00:25;88.13;;;46.08;;
23474;SDS011;11910;52.086;21.066;2023-03-01T02:03:03;85.25;;;46.40;;
23474;SDS011;11910;52.086;21.066;2023-03-01T02:08:06;84.65;;;45.67;;
23474;SDS011;11910;52.086;21.066;2023-03-01T02:10:33;81.90;;;43.50;;
23474;SDS011;11910;52.086;21.066;2023-03-01T02:13:00;83.72;;;44.88;;
23474;SDS011;11910;52.086;21.066;2023-03-01T02:15:28;77.68;;;42.95;;
23474;SDS011;11910;52.086;21.066;2023-03-01T02:17:58;76.03;;;42.17;;
23474;SDS011;11910;52.086;21.066;2023-03-01T02:23:14;74.78;;;40.83;;
23474;SDS011;11910;52.086;21.066;2023-03-01T02:28:38;74.88;;;40.90;;
23474;SDS011;11910;52.086;21.066;2023-03-01T02:31:08;74.70;;;40.92;;
23474;SDS011;11910;52.086;21.066;2023-03-01T02:33:53;73.55;;;39.15;;
23474;SDS011;11910;52.086;21.066;2023-03-01T02:36:25;75.20;;;39.60;;
23474;SDS011;11910;52.086;21.066;2023-03-01T02:38:56;76.75;;;39.85;;
23474;SDS011;11910;52.086;21.066;2023-03-01T02:41:24;78.25;;;41.78;;
23474;SDS011;11910;52.086;21.066;2023-03-01T02:43:53;76.88;;;41.90;;
23474;SDS011;11910;52.086;21.066;2023-03-01T02:46:22;72.95;;;40.08;;
23474;SDS011;11910;52.086;21.066;2023-03-01T02:48:50;90.85;;;47.70;;
23474;SDS011;11910;52.086;21.066;2023-03-01T02:51:30;71.25;;;37.97;;
23474;SDS011;11910;52.086;21.066;2023-03-01T02:56:53;81.30;;;45.65;;
23474;SDS011;11910;52.086;21.066;2023-03-01T02:59:19;76.63;;;42.03;;
23474;SDS011;11910;52.086;21.066;2023-03-01T03:01:47;77.28;;;43.40;;
23474;SDS011;11910;52.086;21.066;2023-03-01T03:04:14;77.30;;;41.70;;
23474;SDS011;11910;52.086;21.066;2023-03-01T03:06:44;79.72;;;44.13;;
23474;SDS011;11910;52.086;21.066;2023-03-01T03:09:11;83.80;;;44.08;;
23474;SDS011;11910;52.086;21.066;2023-03-01T03:11:38;83.03;;;43.85;;
23474;SDS011;11910;52.086;21.066;2023-03-01T03:14:06;84.60;;;45.30;;
23474;SDS011;11910;52.086;21.066;2023-03-01T03:16:38;83.28;;;44.25;;
23474;SDS011;11910;52.086;21.066;2023-03-01T03:19:05;80.97;;;43.85;;
23474;SDS011;11910;52.086;21.066;2023-03-01T03:21:31;80.07;;;42.97;;
23474;SDS011;11910;52.086;21.066;2023-03-01T03:23:57;75.35;;;40.83;;
23474;SDS011;11910;52.086;21.066;2023-03-01T03:26:23;78.50;;;42.20;;
23474;SDS011;11910;52.086;21.066;2023-03-01T03:28:49;72.60;;;41.03;;
23474;SDS011;11910;52.086;21.066;2023-03-01T03:31:15;78.13;;;40.60;;
23474;SDS011;11910;52.086;21.066;2023-03-01T03:33:41;74.70;;;40.25;;
23474;SDS011;11910;52.086;21.066;2023-03-01T03:36:06;76.18;;;41.75;;
23474;SDS011;11910;52.086;21.066;2023-03-01T03:38:37;71.65;;;40.05;;
23474;SDS011;11910;52.086;21.066;2023-03-01T03:41:04;73.55;;;41.15;;
23474;SDS011;11910;52.086;21.066;2023-03-01T03:43:32;74.95;;;39.38;;
23474;SDS011;11910;52.086;21.066;2023-03-01T03:46:00;75.45;;;40.72;;
23474;SDS011;11910;52.086;21.066;2023-03-01T03:48:32;76.32;;;39.92;;
23474;SDS011;11910;52.086;21.066;2023-03-01T03:50:59;72.03;;;40.58;;
23474;SDS011;11910;52.086;21.066;2023-03-01T03:53:25;73.30;;;39.78;;
23474;SDS011;11910;52.086;21.066;2023-03-01T03:55:53;76.45;;;41.03;;
23474;SDS011;11910;52.086;21.066;2023-03-01T03:58:19;70.90;;;39.28;;
23474;SDS011;11910;52.086;21.066;2023-03-01T04:00:48;69.53;;;36.85;;
23474;SDS011;11910;52.086;21.066;2023-03-01T04:03:15;68.85;;;39.03;;
23474;SDS011;11910;52.086;21.066;2023-03-01T04:05:43;75.00;;;40.05;;
23474;SDS011;11910;52.086;21.066;2023-03-01T04:08:10;70.05;;;39.33;;
23474;SDS011;11910;52.086;21.066;2023-03-01T04:13:04;67.38;;;39.28;;
23474;SDS011;11910;52.086;21.066;2023-03-01T04:15:32;69.32;;;38.75;;
23474;SDS011;11910;52.086;21.066;2023-03-01T04:17:58;73.20;;;39.78;;
23474;SDS011;11910;52.086;21.066;2023-03-01T04:20:26;72.53;;;39.40;;
23474;SDS011;11910;52.086;21.066;2023-03-01T04:23:02;71.65;;;39.97;;
23474;SDS011;11910;52.086;21.066;2023-03-01T04:25:38;68.07;;;38.63;;
23474;SDS011;11910;52.086;21.066;2023-03-01T04:28:10;71.57;;;38.50;;
23474;SDS011;11910;52.086;21.066;2023-03-01T04:30:36;64.28;;;36.25;;
23474;SDS011;11910;52.086;21.066;2023-03-01T04:33:03;67.10;;;37.35;;
23474;SDS011;11910;52.086;21.066;2023-03-01T04:35:30;67.13;;;38.67;;
23474;SDS011;11910;52.086;21.066;2023-03-01T04:37:56;74.22;;;39.00;;
23474;SDS011;11910;52.086;21.066;2023-03-01T04:40:22;71.63;;;38.72;;
23474;SDS011;11910;52.086;21.066;2023-03-01T04:42:47;66.97;;;37.25;;
23474;SDS011;11910;52.086;21.066;2023-03-01T04:45:13;72.72;;;39.00;;
23474;SDS011;11910;52.086;21.066;2023-03-01T04:47:42;74.75;;;40.47;;
23474;SDS011;11910;52.086;21.066;2023-03-01T04:50:12;67.28;;;36.15;;
23474;SDS011;11910;52.086;21.066;2023-03-01T04:52:40;70.72;;;39.17;;
23474;SDS011;11910;52.086;21.066;2023-03-01T04:55:05;70.72;;;38.22;;
23474;SDS011;11910;52.086;21.066;2023-03-01T04:57:32;64.95;;;37.55;;
23474;SDS011;11910;52.086;21.066;2023-03-01T04:59:58;67.57;;;38.53;;
23474;SDS011;11910;52.086;21.066;2023-03-01T05:02:23;70.50;;;37.70;;
23474;SDS011;11910;52.086;21.066;2023-03-01T05:04:49;66.00;;;36.00;;
23474;SDS011;11910;52.086;21.066;2023-03-01T05:07:14;69.32;;;36.20;;
23474;SDS011;11910;52.086;21.066;2023-03-01T05:09:44;65.93;;;36.38;;
23474;SDS011;11910;52.086;21.066;2023-03-01T05:12:13;71.28;;;38.03;;
23474;SDS011;11910;52.086;21.066;2023-03-01T05:14:39;69.63;;;37.17;;
23474;SDS011;11910;52.086;21.066;2023-03-01T05:17:06;65.55;;;36.50;;
23474;SDS011;11910;52.086;21.066;2023-03-01T05:19:32;68.93;;;36.42;;
23474;SDS011;11910;52.086;21.066;2023-03-01T05:21:58;63.28;;;35.55;;
23474;SDS011;11910;52.086;21.066;2023-03-01T05:24:26;63.92;;;35.25;;
23474;SDS011;11910;52.086;21.066;2023-03-01T05:26:53;63.00;;;34.53;;
23474;SDS011;11910;52.086;21.066;2023-03-01T05:29:19;63.10;;;35.83;;
23474;SDS011;11910;52.086;21.066;2023-03-01T05:31:50;67.10;;;35.10;;
23474;SDS011;11910;52.086;21.066;2023-03-01T05:34:18;67.22;;;36.40;;
23474;SDS011;11910;52.086;21.066;2023-03-01T05:36:46;65.13;;;35.38;;
23474;SDS011;11910;52.086;21.066;2023-03-01T05:39:11;60.50;;;34.13;;
23474;SDS011;11910;52.086;21.066;2023-03-01T05:41:37;64.43;;;33.78;;
23474;SDS011;11910;52.086;21.066;2023-03-01T05:44:02;58.72;;;32.20;;
23474;SDS011;11910;52.086;21.066;2023-03-01T05:46:29;61.40;;;33.17;;
23474;SDS011;11910;52.086;21.066;2023-03-01T05:48:55;63.03;;;33.25;;
23474;SDS011;11910;52.086;21.066;2023-03-01T05:51:21;60.90;;;33.38;;
23474;SDS011;11910;52.086;21.066;2023-03-01T05:53:47;53.67;;;30.38;;
23474;SDS011;11910;52.086;21.066;2023-03-01T05:56:12;57.22;;;32.10;;
23474;SDS011;11910;52.086;21.066;2023-03-01T05:58:38;57.08;;;31.80;;
23474;SDS011;11910;52.086;21.066;2023-03-01T06:01:03;56.58;;;32.33;;
23474;SDS011;11910;52.086;21.066;2023-03-01T06:03:29;58.55;;;32.80;;
23474;SDS011;11910;52.086;21.066;2023-03-01T06:05:58;59.60;;;32.38;;
23474;SDS011;11910;52.086;21.066;2023-03-01T06:08:23;66.57;;;34.63;;
23474;SDS011;11910;52.086;21.066;2023-03-01T06:10:51;66.50;;;34.42;;
23474;SDS011;11910;52.086;21.066;2023-03-01T06:13:17;58.40;;;33.33;;
23474;SDS011;11910;52.086;21.066;2023-03-01T06:15:42;66.05;;;35.95;;
23474;SDS011;11910;52.086;21.066;2023-03-01T06:18:08;65.45;;;37.05;;
23474;SDS011;11910;52.086;21.066;2023-03-01T06:20:33;74.45;;;39.78;;
23474;SDS011;11910;52.086;21.066;2023-03-01T06:22:59;69.90;;;38.08;;
23474;SDS011;11910;52.086;21.066;2023-03-01T06:25:25;66.22;;;37.78;;
23474;SDS011;11910;52.086;21.066;2023-03-01T06:27:51;70.70;;;37.92;;
23474;SDS011;11910;52.086;21.066;2023-03-01T06:30:18;70.32;;;36.58;;
23474;SDS011;11910;52.086;21.066;2023-03-01T06:32:45;64.10;;;38.08;;
23474;SDS011;11910;52.086;21.066;2023-03-01T06:35:12;60.35;;;35.47;;
23474;SDS011;11910;52.086;21.066;2023-03-01T06:37:39;60.13;;;33.03;;
23474;SDS011;11910;52.086;21.066;2023-03-01T06:40:06;62.80;;;35.22;;
23474;SDS011;11910;52.086;21.066;2023-03-01T06:42:37;61.88;;;34.42;;
23474;SDS011;11910;52.086;21.066;2023-03-01T06:45:05;62.10;;;32.85;;
23474;SDS011;11910;52.086;21.066;2023-03-01T06:47:32;56.92;;;32.15;;
23474;SDS011;11910;52.086;21.066;2023-03-01T06:50:01;58.03;;;32.10;;
23474;SDS011;11910;52.086;21.066;2023-03-01T06:52:27;54.50;;;30.58;;
23474;SDS011;11910;52.086;21.066;2023-03-01T06:54:53;56.95;;;31.17;;
23474;SDS011;11910;52.086;21.066;2023-03-01T06:57:19;55.28;;;32.03;;
23474;SDS011;11910;52.086;21.066;2023-03-01T06:59:46;59.72;;;31.73;;
23474;SDS011;11910;52.086;21.066;2023-03-01T07:02:12;50.45;;;29.67;;
23474;SDS011;11910;52.086;21.066;2023-03-01T07:04:39;55.47;;;31.05;;
23474;SDS011;11910;52.086;21.066;2023-03-01T07:07:05;54.47;;;30.92;;
23474;SDS011;11910;52.086;21.066;2023-03-01T07:09:31;56.88;;;31.10;;
23474;SDS011;11910;52.086;21.066;2023-03-01T07:11:57;56.40;;;30.08;;
23474;SDS011;11910;52.086;21.066;2023-03-01T07:14:23;58.22;;;30.40;;
23474;SDS011;11910;52.086;21.066;2023-03-01T07:16:52;58.92;;;29.80;;
23474;SDS011;11910;52.086;21.066;2023-03-01T07:19:18;58.63;;;31.10;;
23474;SDS011;11910;52.086;21.066;2023-03-01T07:21:43;54.53;;;29.60;;
23474;SDS011;11910;52.086;21.066;2023-03-01T07:24:10;53.58;;;28.70;;
23474;SDS011;11910;52.086;21.066;2023-03-01T07:26:36;54.67;;;29.20;;
23474;SDS011;11910;52.086;21.066;2023-03-01T07:29:02;58.33;;;30.80;;
23474;SDS011;11910;52.086;21.066;2023-03-01T07:31:30;52.90;;;29.33;;
23474;SDS011;11910;52.086;21.066;2023-03-01T07:33:56;52.17;;;29.52;;
23474;SDS011;11910;52.086;21.066;2023-03-01T07:36:22;50.25;;;28.52;;
23474;SDS011;11910;52.086;21.066;2023-03-01T07:38:51;52.88;;;29.17;;
23474;SDS011;11910;52.086;21.066;2023-03-01T07:41:17;56.05;;;28.88;;
23474;SDS011;11910;52.086;21.066;2023-03-01T07:43:42;51.40;;;28.35;;
23474;SDS011;11910;52.086;21.066;2023-03-01T07:46:08;44.95;;;27.20;;
23474;SDS011;11910;52.086;21.066;2023-03-01T07:48:34;44.72;;;26.33;;
23474;SDS011;11910;52.086;21.066;2023-03-01T07:51:00;47.33;;;25.63;;
23474;SDS011;11910;52.086;21.066;2023-03-01T07:53:26;47.13;;;25.33;;
23474;SDS011;11910;52.086;21.066;2023-03-01T07:56:05;40.45;;;25.52;;
23474;SDS011;11910;52.086;21.066;2023-03-01T07:58:42;46.38;;;25.60;;
23474;SDS011;11910;52.086;21.066;2023-03-01T08:01:09;39.83;;;23.30;;
23474;SDS011;11910;52.086;21.066;2023-03-01T08:03:40;41.67;;;24.27;;
23474;SDS011;11910;52.086;21.066;2023-03-01T08:06:07;46.58;;;24.33;;
23474;SDS011;11910;52.086;21.066;2023-03-01T08:08:35;45.35;;;24.00;;
23474;SDS011;11910;52.086;21.066;2023-03-01T08:11:01;42.05;;;22.85;;
23474;SDS011;11910;52.086;21.066;2023-03-01T08:13:33;33.35;;;20.75;;
23474;SDS011;11910;52.086;21.066;2023-03-01T08:16:03;38.63;;;22.50;;
23474;SDS011;11910;52.086;21.066;2023-03-01T08:18:32;38.10;;;21.77;;
23474;SDS011;11910;52.086;21.066;2023-03-01T08:21:07;40.33;;;23.00;;
23474;SDS011;11910;52.086;21.066;2023-03-01T08:23:37;39.05;;;22.60;;
23474;SDS011;11910;52.086;21.066;2023-03-01T08:26:09;35.20;;;21.67;;
23474;SDS011;11910;52.086;21.066;2023-03-01T08:28:43;35.75;;;22.38;;
23474;SDS011;11910;52.086;21.066;2023-03-01T08:33:49;32.42;;;20.08;;
23474;SDS011;11910;52.086;21.066;2023-03-01T08:36:20;34.38;;;19.88;;
23474;SDS011;11910;52.086;21.066;2023-03-01T08:38:50;32.13;;;20.25;;
23474;SDS011;11910;52.086;21.066;2023-03-01T08:41:16;33.55;;;19.58;;
23474;SDS011;11910;52.086;21.066;2023-03-01T08:43:42;33.72;;;19.52;;
23474;SDS011;11910;52.086;21.066;2023-03-01T08:46:11;32.53;;;19.27;;
23474;SDS011;11910;52.086;21.066;2023-03-01T08:48:39;35.70;;;19.80;;
23474;SDS011;11910;52.086;21.066;2023-03-01T08:51:11;35.03;;;18.90;;
23474;SDS011;11910;52.086;21.066;2023-03-01T08:53:40;33.50;;;18.63;;
23474;SDS011;11910;52.086;21.066;2023-03-01T08:56:06;28.25;;;18.05;;
23474;SDS011;11910;52.086;21.066;2023-03-01T08:58:33;32.80;;;18.95;;
23474;SDS011;11910;52.086;21.066;2023-03-01T09:00:59;30.75;;;19.48;;
23474;SDS011;11910;52.086;21.066;2023-03-01T09:03:32;30.88;;;18.00;;
23474;SDS011;11910;52.086;21.066;2023-03-01T09:06:00;27.30;;;17.45;;
23474;SDS011;11910;52.086;21.066;2023-03-01T09:08:27;33.50;;;17.40;;
23474;SDS011;11910;52.086;21.066;2023-03-01T09:10:53;29.55;;;16.98;;
23474;SDS011;11910;52.086;21.066;2023-03-01T09:13:19;29.95;;;17.63;;
23474;SDS011;11910;52.086;21.066;2023-03-01T09:15:52;32.10;;;17.17;;
23474;SDS011;11910;52.086;21.066;2023-03-01T09:18:17;30.52;;;16.92;;
23474;SDS011;11910;52.086;21.066;2023-03-01T09:20:43;28.15;;;17.45;;
23474;SDS011;11910;52.086;21.066;2023-03-01T09:23:08;28.17;;;16.98;;
23474;SDS011;11910;52.086;21.066;2023-03-01T09:25:44;31.52;;;17.73;;
23474;SDS011;11910;52.086;21.066;2023-03-01T09:28:10;30.35;;;17.08;;
23474;SDS011;11910;52.086;21.066;2023-03-01T09:30:38;28.77;;;18.00;;
23474;SDS011;11910;52.086;21.066;2023-03-01T09:33:04;28.27;;;17.02;;
23474;SDS011;11910;52.086;21.066;2023-03-01T09:35:29;28.92;;;18.23;;
23474;SDS011;11910;52.086;21.066;2023-03-01T09:37:55;35.42;;;18.05;;
23474;SDS011;11910;52.086;21.066;2023-03-01T09:40:21;28.05;;;17.88;;
23474;SDS011;11910;52.086;21.066;2023-03-01T09:45:33;31.85;;;18.63;;
23474;SDS011;11910;52.086;21.066;2023-03-01T09:48:02;27.77;;;18.23;;
23474;SDS011;11910;52.086;21.066;2023-03-01T09:50:33;29.75;;;18.45;;
23474;SDS011;11910;52.086;21.066;2023-03-01T09:53:02;31.23;;;19.17;;
23474;SDS011;11910;52.086;21.066;2023-03-01T09:55:44;28.00;;;18.25;;
23474;SDS011;11910;52.086;21.066;2023-03-01T10:04:28;34.05;;;19.27;;
23474;SDS011;11910;52.086;21.066;2023-03-01T10:09:36;27.55;;;17.42;;
23474;SDS011;11910;52.086;21.066;2023-03-01T10:12:07;28.80;;;17.50;;
23474;SDS011;11910;52.086;21.066;2023-03-01T10:14:36;28.55;;;18.30;;
23474;SDS011;11910;52.086;21.066;2023-03-01T10:20:10;26.77;;;15.77;;
23474;SDS011;11910;52.086;21.066;2023-03-01T10:22:42;25.95;;;16.48;;
23474;SDS011;11910;52.086;21.066;2023-03-01T10:25:14;27.25;;;16.63;;
23474;SDS011;11910;52.086;21.066;2023-03-01T10:27:59;24.60;;;15.40;;
23474;SDS011;11910;52.086;21.066;2023-03-01T10:30:35;21.08;;;14.55;;
23474;SDS011;11910;52.086;21.066;2023-03-01T10:35:46;23.05;;;15.95;;
23474;SDS011;11910;52.086;21.066;2023-03-01T10:38:14;23.70;;;15.82;;
23474;SDS011;11910;52.086;21.066;2023-03-01T10:41:05;27.65;;;17.20;;
23474;SDS011;11910;52.086;21.066;2023-03-01T10:43:53;24.15;;;16.08;;
23474;SDS011;11910;52.086;21.066;2023-03-01T10:46:29;23.52;;;15.95;;
23474;SDS011;11910;52.086;21.066;2023-03-01T10:51:31;26.88;;;17.15;;
23474;SDS011;11910;52.086;21.066;2023-03-01T10:53:57;26.80;;;18.58;;
23474;SDS011;11910;52.086;21.066;2023-03-01T10:56:27;25.80;;;16.98;;
23474;SDS011;11910;52.086;21.066;2023-03-01T10:58:57;24.23;;;16.27;;
23474;SDS011;11910;52.086;21.066;2023-03-01T11:04:08;21.38;;;14.70;;
23474;SDS011;11910;52.086;21.066;2023-03-01T11:06:37;21.40;;;14.73;;
23474;SDS011;11910;52.086;21.066;2023-03-01T11:11:57;19.75;;;14.30;;
23474;SDS011;11910;52.086;21.066;2023-03-01T11:14:37;21.05;;;14.50;;
23474;SDS011;11910;52.086;21.066;2023-03-01T11:19:39;22.45;;;15.30;;
23474;SDS011;11910;52.086;21.066;2023-03-01T11:22:20;23.10;;;15.73;;
23474;SDS011;11910;52.086;21.066;2023-03-01T11:24:48;23.42;;;15.25;;
23474;SDS011;11910;52.086;21.066;2023-03-01T11:27:25;21.23;;;16.75;;
23474;SDS011;11910;52.086;21.066;2023-03-01T11:29:57;23.48;;;15.65;;
23474;SDS011;11910;52.086;21.066;2023-03-01T11:32:53;20.58;;;15.52;;
23474;SDS011;11910;52.086;21.066;2023-03-01T11:35:32;20.80;;;16.15;;
23474;SDS011;11910;52.086;21.066;2023-03-01T11:40:54;19.67;;;14.90;;
23474;SDS011;11910;52.086;21.066;2023-03-01T11:54:43;21.75;;;14.93;;
23474;SDS011;11910;52.086;21.066;2023-03-01T11:57:18;17.50;;;13.02;;
23474;SDS011;11910;52.086;21.066;2023-03-01T12:00:14;19.08;;;13.48;;
23474;SDS011;11910;52.086;21.066;2023-03-01T12:03:19;17.57;;;11.97;;
23474;SDS011;11910;52.086;21.066;2023-03-01T12:05:57;19.40;;;13.15;;
23474;SDS011;11910;52.086;21.066;2023-03-01T12:19:33;19.17;;;13.48;;
23474;SDS011;11910;52.086;21.066;2023-03-01T12:26:01;16.67;;;12.82;;
23474;SDS011;11910;52.086;21.066;2023-03-01T12:31:32;19.85;;;13.43;;
23474;SDS011;11910;52.086;21.066;2023-03-01T12:39:53;21.13;;;14.05;;
23474;SDS011;11910;52.086;21.066;2023-03-01T12:50:39;22.67;;;14.68;;
23474;SDS011;11910;52.086;21.066;2023-03-01T12:53:07;20.98;;;14.50;;
23474;SDS011;11910;52.086;21.066;2023-03-01T12:56:26;19.30;;;13.88;;
23474;SDS011;11910;52.086;21.066;2023-03-01T13:07:04;25.55;;;15.35;;
23474;SDS011;11910;52.086;21.066;2023-03-01T13:23:23;19.70;;;13.77;;
23474;SDS011;11910;52.086;21.066;2023-03-01T13:35:56;18.80;;;14.38;;
23474;SDS011;11910;52.086;21.066;2023-03-01T13:46:53;19.58;;;14.30;;
23474;SDS011;11910;52.086;21.066;2023-03-01T13:49:26;20.25;;;14.35;;
23474;SDS011;11910;52.086;21.066;2023-03-01T13:51:54;23.70;;;15.52;;
23474;SDS011;11910;52.086;21.066;2023-03-01T13:54:29;20.92;;;15.75;;
23474;SDS011;11910;52.086;21.066;2023-03-01T13:56:59;23.48;;;14.77;;
23474;SDS011;11910;52.086;21.066;2023-03-01T13:59:26;23.23;;;14.13;;
23474;SDS011;11910;52.086;21.066;2023-03-01T14:01:59;24.92;;;16.33;;
23474;SDS011;11910;52.086;21.066;2023-03-01T14:04:26;22.95;;;15.90;;
23474;SDS011;11910;52.086;21.066;2023-03-01T14:07:17;23.67;;;15.38;;
23474;SDS011;11910;52.086;21.066;2023-03-01T14:09:53;24.90;;;15.77;;
23474;SDS011;11910;52.086;21.066;2023-03-01T14:20:46;23.88;;;15.32;;
23474;SDS011;11910;52.086;21.066;2023-03-01T14:23:37;22.42;;;15.68;;
23474;SDS011;11910;52.086;21.066;2023-03-01T14:26:03;23.63;;;14.80;;
23474;SDS011;11910;52.086;21.066;2023-03-01T14:28:30;26.15;;;15.57;;
23474;SDS011;11910;52.086;21.066;2023-03-01T14:30:59;24.30;;;15.00;;
23474;SDS011;11910;52.086;21.066;2023-03-01T14:33:30;22.58;;;15.73;;
23474;SDS011;11910;52.086;21.066;2023-03-01T14:36:13;25.48;;;15.25;;
23474;SDS011;11910;52.086;21.066;2023-03-01T14:38:43;22.90;;;16.35;;
23474;SDS011;11910;52.086;21.066;2023-03-01T14:41:15;28.02;;;16.17;;
23474;SDS011;11910;52.086;21.066;2023-03-01T14:46:38;26.98;;;16.98;;
23474;SDS011;11910;52.086;21.066;2023-03-01T14:49:18;23.20;;;15.05;;
23474;SDS011;11910;52.086;21.066;2023-03-01T14:51:49;29.98;;;16.55;;
23474;SDS011;11910;52.086;21.066;2023-03-01T14:54:27;25.63;;;16.70;;
23474;SDS011;11910;52.086;21.066;2023-03-01T14:57:00;28.58;;;16.92;;
23474;SDS011;11910;52.086;21.066;2023-03-01T14:59:29;29.48;;;17.48;;
23474;SDS011;11910;52.086;21.066;2023-03-01T15:01:55;25.60;;;16.88;;
23474;SDS011;11910;52.086;21.066;2023-03-01T15:04:25;28.05;;;16.90;;
23474;SDS011;11910;52.086;21.066;2023-03-01T15:06:56;26.27;;;16.83;;
23474;SDS011;11910;52.086;21.066;2023-03-01T15:09:30;28.45;;;16.65;;
23474;SDS011;11910;52.086;21.066;2023-03-01T15:12:02;34.22;;;17.23;;
23474;SDS011;11910;52.086;21.066;2023-03-01T15:14:55;27.85;;;16.67;;
23474;SDS011;11910;52.086;21.066;2023-03-01T15:17:29;26.55;;;16.90;;
23474;SDS011;11910;52.086;21.066;2023-03-01T15:20:13;29.15;;;16.75;;
23474;SDS011;11910;52.086;21.066;2023-03-01T15:22:45;28.27;;;17.10;;
23474;SDS011;11910;52.086;21.066;2023-03-01T15:25:24;28.35;;;16.85;;
23474;SDS011;11910;52.086;21.066;2023-03-01T15:27:52;25.98;;;16.38;;
23474;SDS011;11910;52.086;21.066;2023-03-01T15:30:32;28.45;;;17.58;;
23474;SDS011;11910;52.086;21.066;2023-03-01T15:36:31;24.63;;;16.48;;
23474;SDS011;11910;52.086;21.066;2023-03-01T15:39:22;25.13;;;17.23;;
23474;SDS011;11910;52.086;21.066;2023-03-01T15:42:06;28.08;;;17.40;;
23474;SDS011;11910;52.086;21.066;2023-03-01T15:44:41;28.15;;;17.70;;
23474;SDS011;11910;52.086;21.066;2023-03-01T15:47:23;23.55;;;16.88;;
23474;SDS011;11910;52.086;21.066;2023-03-01T15:49:54;29.77;;;16.63;;
23474;SDS011;11910;52.086;21.066;2023-03-01T15:52:24;29.10;;;17.23;;
23474;SDS011;11910;52.086;21.066;2023-03-01T15:54:57;28.58;;;17.23;;
23474;SDS011;11910;52.086;21.066;2023-03-01T15:57:25;32.50;;;17.33;;
23474;SDS011;11910;52.086;21.066;2023-03-01T15:59:53;28.30;;;17.13;;
23474;SDS011;11910;52.086;21.066;2023-03-01T16:02:23;27.85;;;16.67;;
23474;SDS011;11910;52.086;21.066;2023-03-01T16:04:51;31.50;;;18.90;;
23474;SDS011;11910;52.086;21.066;2023-03-01T16:07:18;34.10;;;19.02;;
23474;SDS011;11910;52.086;21.066;2023-03-01T16:09:44;34.42;;;21.10;;
23474;SDS011;11910;52.086;21.066;2023-03-01T16:12:12;31.55;;;19.92;;
23474;SDS011;11910;52.086;21.066;2023-03-01T16:14:40;36.50;;;20.40;;
23474;SDS011;11910;52.086;21.066;2023-03-01T16:17:05;36.58;;;21.17;;
23474;SDS011;11910;52.086;21.066;2023-03-01T16:19:33;37.55;;;22.73;;
23474;SDS011;11910;52.086;21.066;2023-03-01T16:21:58;42.25;;;23.33;;
23474;SDS011;11910;52.086;21.066;2023-03-01T16:24:24;37.08;;;22.10;;
23474;SDS011;11910;52.086;21.066;2023-03-01T16:26:50;39.80;;;22.05;;
23474;SDS011;11910;52.086;21.066;2023-03-01T16:29:18;37.08;;;22.13;;
23474;SDS011;11910;52.086;21.066;2023-03-01T16:31:44;39.55;;;20.50;;
23474;SDS011;11910;52.086;21.066;2023-03-01T16:34:10;35.75;;;19.88;;
23474;SDS011;11910;52.086;21.066;2023-03-01T16:36:35;32.20;;;19.75;;
23474;SDS011;11910;52.086;21.066;2023-03-01T16:39:02;36.83;;;20.33;;
23474;SDS011;11910;52.086;21.066;2023-03-01T16:41:28;36.10;;;19.95;;
23474;SDS011;11910;52.086;21.066;2023-03-01T16:43:54;34.60;;;18.00;;
23474;SDS011;11910;52.086;21.066;2023-03-01T16:46:22;34.97;;;19.42;;
23474;SDS011;11910;52.086;21.066;2023-03-01T16:48:50;38.78;;;22.15;;
23474;SDS011;11910;52.086;21.066;2023-03-01T16:51:16;38.42;;;19.77;;
23474;SDS011;11910;52.086;21.066;2023-03-01T16:53:45;37.67;;;19.60;;